createdAt,value
2022-10-28T00:02:07.728Z,77.15
2022-10-28T00:04:36.611Z,77.11
2022-10-28T00:07:03.490Z,76.83
2022-10-28T00:09:30.075Z,76.78
2022-10-28T00:11:56.578Z,76.33
2022-10-28T00:14:23.865Z,76.09
2022-10-28T00:16:50.666Z,76.11
2022-10-28T00:19:17.576Z,75.91
2022-10-28T00:21:44.660Z,75.99
2022-10-28T00:24:13.873Z,75.92
2022-10-28T00:26:45.977Z,75.90
2022-10-28T00:29:17.851Z,75.81
2022-10-28T00:31:44.617Z,75.71
2022-10-28T00:34:14.000Z,75.73
2022-10-28T00:36:45.967Z,76.15
2022-10-28T00:39:18.151Z,76.01
2022-10-28T00:41:48.271Z,76.14
2022-10-28T00:44:39.296Z,75.96
2022-10-28T00:47:31.917Z,76.26
2022-10-28T00:50:20.695Z,76.08
2022-10-28T00:52:54.870Z,75.94
2022-10-28T00:55:22.426Z,75.78
2022-10-28T00:57:50.771Z,75.23
2022-10-28T01:00:20.941Z,75.24
2022-10-28T01:02:49.001Z,75.48
2022-10-28T01:05:23.557Z,75.64
2022-10-28T01:07:53.380Z,75.57
2022-10-28T01:10:28.818Z,75.76
2022-10-28T01:13:22.620Z,75.47
2022-10-28T01:16:13.841Z,74.73
2022-10-28T01:18:55.314Z,74.24
2022-10-28T01:21:55.708Z,74.16
2022-10-28T01:24:37.101Z,74.01
2022-10-28T01:27:24.628Z,73.74
2022-10-28T01:30:03.198Z,72.67
2022-10-28T01:32:39.071Z,71.97
2022-10-28T01:35:21.960Z,72.46
2022-10-28T01:38:15.849Z,72.63
2022-10-28T01:40:47.138Z,72.42
2022-10-28T01:43:22.124Z,71.94
2022-10-28T01:46:00.239Z,71.96
2022-10-28T01:51:11.970Z,71.32
2022-10-28T01:53:43.009Z,71.58
2022-10-28T01:56:14.418Z,71.47
2022-10-28T01:58:44.011Z,70.57
2022-10-28T02:01:11.374Z,70.15
2022-10-28T02:03:38.306Z,69.90
2022-10-28T02:06:12.278Z,69.98
2022-10-28T02:08:52.792Z,69.83
2022-10-28T02:11:22.079Z,69.65
2022-10-28T02:13:54.378Z,69.57
2022-10-28T02:16:32.004Z,69.77
2022-10-28T02:19:06.451Z,70.19
2022-10-28T02:21:47.845Z,69.48
2022-10-28T02:24:22.937Z,69.22
2022-10-28T02:27:01.251Z,69.31
2022-10-28T02:29:39.905Z,69.29
2022-10-28T02:32:12.703Z,69.17
2022-10-28T02:34:46.936Z,68.58
2022-10-28T02:37:21.198Z,68.14
2022-10-28T02:39:53.070Z,67.74
2022-10-28T02:42:22.498Z,68.02
2022-10-28T02:44:55.149Z,67.46
2022-10-28T02:47:26.923Z,67.27
2022-10-28T02:49:55.892Z,67.54
2022-10-28T02:52:25.856Z,67.26
2022-10-28T02:54:58.351Z,67.65
2022-10-28T02:57:32.661Z,67.80
2022-10-28T03:00:05.738Z,67.94
2022-10-28T03:02:32.454Z,68.07
2022-10-28T03:04:58.941Z,68.33
2022-10-28T03:07:25.392Z,68.80
2022-10-28T03:09:51.870Z,69.28
2022-10-28T03:12:18.365Z,68.85
2022-10-28T03:14:44.918Z,68.68
2022-10-28T03:17:11.418Z,68.38
2022-10-28T03:19:37.918Z,68.40
2022-10-28T03:22:04.471Z,68.31
2022-10-28T03:24:31.026Z,67.66
2022-10-28T03:26:57.777Z,67.90
2022-10-28T03:29:24.224Z,67.91
2022-10-28T03:31:50.769Z,67.97
2022-10-28T03:34:17.250Z,67.55
2022-10-28T03:36:43.856Z,67.41
2022-10-28T03:39:10.339Z,67.31
2022-10-28T03:41:36.879Z,66.68
2022-10-28T03:44:03.369Z,65.89
2022-10-28T03:46:32.240Z,65.82
2022-10-28T03:49:01.607Z,65.58
2022-10-28T03:51:28.089Z,65.78
2022-10-28T03:53:54.627Z,66.18
2022-10-28T03:56:21.101Z,65.61
2022-10-28T03:58:48.957Z,65.80
2022-10-28T04:01:15.897Z,65.27
2022-10-28T04:03:42.436Z,65.19
2022-10-28T04:06:10.130Z,64.81
2022-10-28T04:08:37.467Z,64.25
2022-10-28T04:11:04.205Z,63.55
2022-10-28T04:13:30.693Z,63.26
2022-10-28T04:15:57.611Z,63.27
2022-10-28T04:18:24.139Z,63.08
2022-10-28T04:20:52.019Z,63.13
2022-10-28T04:23:19.274Z,62.73
2022-10-28T04:25:45.875Z,63.01
2022-10-28T04:28:12.421Z,62.72
2022-10-28T04:30:38.906Z,62.55
2022-10-28T04:33:05.348Z,62.09
2022-10-28T04:35:31.831Z,62.42
2022-10-28T04:37:58.347Z,62.69
2022-10-28T04:40:24.988Z,63.68
2022-10-28T04:42:51.570Z,64.23
2022-10-28T04:45:18.225Z,64.83
2022-10-28T04:47:44.686Z,65.02
2022-10-28T04:50:11.189Z,65.43
2022-10-28T04:52:37.673Z,65.07
2022-10-28T04:55:07.936Z,64.09
2022-10-28T04:57:34.375Z,63.81
2022-10-28T05:00:00.924Z,63.97
2022-10-28T05:02:27.518Z,63.66
2022-10-28T05:04:54.053Z,62.79
2022-10-28T05:07:22.880Z,62.74
2022-10-28T05:09:50.257Z,61.14
2022-10-28T05:12:16.736Z,60.97
2022-10-28T05:14:43.183Z,60.34
2022-10-28T05:17:10.922Z,60.59
2022-10-28T05:19:37.417Z,61.45
2022-10-28T05:22:04.107Z,61.57
2022-10-28T05:24:30.585Z,61.98
2022-10-28T05:26:59.825Z,62.41
2022-10-28T05:29:29.669Z,61.66
2022-10-28T05:31:59.022Z,61.13
2022-10-28T05:34:25.537Z,62.90
2022-10-28T05:36:52.014Z,64.38
2022-10-28T05:39:18.518Z,65.83
2022-10-28T05:41:44.999Z,66.17
2022-10-28T05:44:11.444Z,66.95
2022-10-28T05:46:37.927Z,66.97
2022-10-28T05:49:04.504Z,66.96
2022-10-28T05:51:30.983Z,66.47
2022-10-28T05:53:57.449Z,65.85
2022-10-28T05:56:23.954Z,65.09
2022-10-28T06:01:21.845Z,63.12
2022-10-28T06:03:48.425Z,62.55
2022-10-28T06:06:14.947Z,61.56
2022-10-28T06:08:41.453Z,61.25
2022-10-28T06:11:06.364Z,61.30
2022-10-28T06:13:33.042Z,61.20
2022-10-28T06:16:03.010Z,61.29
2022-10-28T06:18:29.599Z,61.35
2022-10-28T06:20:58.967Z,60.64
2022-10-28T06:23:27.656Z,60.92
2022-10-28T06:26:02.185Z,61.46
2022-10-28T06:28:29.831Z,61.62
2022-10-28T06:31:07.576Z,62.17
2022-10-28T06:33:34.140Z,62.65
2022-10-28T06:36:00.818Z,63.09
2022-10-28T06:38:28.473Z,62.35
2022-10-28T06:41:00.690Z,61.84
2022-10-28T06:43:27.267Z,61.33
2022-10-28T06:45:55.629Z,60.92
2022-10-28T06:48:24.100Z,60.75
2022-10-28T06:50:50.596Z,60.83
2022-10-28T06:53:19.792Z,61.19
2022-10-28T06:55:52.877Z,60.99
2022-10-28T06:58:19.378Z,61.87
2022-10-28T07:00:45.882Z,62.79
2022-10-28T07:03:12.413Z,63.23
2022-10-28T07:05:38.954Z,63.51
2022-10-28T07:08:05.773Z,63.62
2022-10-28T07:10:32.280Z,64.00
2022-10-28T07:12:58.813Z,63.78
2022-10-28T07:15:25.342Z,63.51
2022-10-28T07:17:56.656Z,63.21
2022-10-28T07:20:24.252Z,63.10
2022-10-28T07:23:01.340Z,62.80
2022-10-28T07:25:29.597Z,62.37
2022-10-28T07:27:59.706Z,62.53
2022-10-28T07:30:27.335Z,61.64
2022-10-28T07:32:54.172Z,62.49
2022-10-28T07:35:21.182Z,62.54
2022-10-28T07:37:47.885Z,62.25
2022-10-28T07:40:14.677Z,62.11
2022-10-28T07:42:41.314Z,61.58
2022-10-28T07:45:08.112Z,61.28
2022-10-28T07:47:34.651Z,61.22
2022-10-28T07:50:01.090Z,60.81
2022-10-28T07:52:27.691Z,60.56
2022-10-28T07:54:54.217Z,60.57
2022-10-28T07:57:23.913Z,61.06
2022-10-28T07:59:50.483Z,60.73
2022-10-28T08:02:19.988Z,60.64
2022-10-28T08:04:46.493Z,60.37
2022-10-28T08:07:14.227Z,59.35
2022-10-28T08:09:41.283Z,59.05
2022-10-28T08:12:08.738Z,58.36
2022-10-28T08:14:35.762Z,57.95
2022-10-28T08:17:02.235Z,58.07
2022-10-28T08:19:28.709Z,57.62
2022-10-28T08:21:55.239Z,57.72
2022-10-28T08:24:21.821Z,57.86
2022-10-28T08:26:48.287Z,57.34
2022-10-28T08:29:14.960Z,57.13
2022-10-28T08:31:41.820Z,57.45
2022-10-28T08:34:08.764Z,56.32
2022-10-28T08:36:35.647Z,55.82
2022-10-28T08:39:02.959Z,56.59
2022-10-28T08:41:29.456Z,55.18
2022-10-28T08:44:30.942Z,55.06
2022-10-28T08:47:14.143Z,54.58
2022-10-28T08:49:43.460Z,54.65
2022-10-28T08:52:25.897Z,54.48
2022-10-28T08:55:01.177Z,54.41
2022-10-28T08:57:33.338Z,53.44
2022-10-28T09:00:00.106Z,53.93
2022-10-28T09:02:31.173Z,53.56
2022-10-28T09:05:19.487Z,53.89
2022-10-28T09:07:46.105Z,53.28
2022-10-28T09:10:15.783Z,53.06
2022-10-28T09:12:42.215Z,53.81
2022-10-28T09:15:53.470Z,53.34
2022-10-28T09:18:28.958Z,53.61
2022-10-28T09:20:57.711Z,53.86
2022-10-28T09:23:27.296Z,53.70
2022-10-28T09:26:05.547Z,53.64
2022-10-28T09:28:44.211Z,54.69
2022-10-28T09:31:22.619Z,54.33
2022-10-28T09:33:51.799Z,54.59
2022-10-28T09:36:41.206Z,55.36
2022-10-28T09:39:16.797Z,54.55
2022-10-28T09:41:44.929Z,53.56
2022-10-28T09:44:42.453Z,53.26
2022-10-28T09:47:17.126Z,52.32
2022-10-28T09:49:46.218Z,51.81
2022-10-28T09:52:25.262Z,52.22
2022-10-28T09:54:53.456Z,51.92
2022-10-28T09:57:22.352Z,52.15
2022-10-28T09:59:48.847Z,51.41
2022-10-28T10:02:21.374Z,51.73
2022-10-28T10:04:47.868Z,52.04
2022-10-28T10:07:33.303Z,51.91
2022-10-28T10:12:40.811Z,51.25
2022-10-28T10:15:14.918Z,51.74
2022-10-28T10:17:48.754Z,51.43
2022-10-28T10:20:21.010Z,51.52
2022-10-28T10:22:49.504Z,51.99
2022-10-28T10:25:29.903Z,51.40
2022-10-28T10:28:17.209Z,51.46
2022-10-28T10:30:51.477Z,51.10
2022-10-28T10:33:31.030Z,50.77
2022-10-28T10:36:02.901Z,50.70
2022-10-28T10:38:31.480Z,50.81
2022-10-28T10:40:58.088Z,51.17
2022-10-28T10:43:35.652Z,51.27
2022-10-28T10:46:13.981Z,50.75
2022-10-28T10:48:40.723Z,51.16
2022-10-28T10:51:22.926Z,51.72
2022-10-28T10:53:51.754Z,51.22
2022-10-28T10:56:29.905Z,51.39
2022-10-28T10:59:03.397Z,51.65
2022-10-28T11:01:35.898Z,51.69
2022-10-28T11:04:08.153Z,52.21
2022-10-28T11:06:39.139Z,51.81
2022-10-28T11:09:17.714Z,52.59
2022-10-28T11:11:50.644Z,52.87
2022-10-28T11:14:24.623Z,53.26
2022-10-28T11:16:53.838Z,53.99
2022-10-28T11:19:38.348Z,54.57
2022-10-28T11:22:23.237Z,54.56
2022-10-28T11:25:10.690Z,54.86
2022-10-28T11:27:55.512Z,54.90
2022-10-28T11:30:59.778Z,55.07
2022-10-28T11:33:48.047Z,54.69
2022-10-28T11:37:05.288Z,55.17
2022-10-28T11:39:38.851Z,55.52
2022-10-28T11:42:20.602Z,55.06
2022-10-28T11:44:58.844Z,54.58
2022-10-28T11:47:44.138Z,54.91
2022-10-28T11:50:13.530Z,54.29
2022-10-28T11:53:06.102Z,54.27
2022-10-28T11:55:58.608Z,54.83
2022-10-28T11:58:54.152Z,54.67
2022-10-28T12:01:39.532Z,54.81
2022-10-28T12:04:14.945Z,54.38
2022-10-28T12:07:10.959Z,54.10
2022-10-28T12:10:02.843Z,53.99
2022-10-28T12:12:41.106Z,54.41
2022-10-28T12:15:29.052Z,54.75
2022-10-28T12:17:55.800Z,54.17
2022-10-28T12:20:27.341Z,54.32
2022-10-28T12:22:58.233Z,53.96
2022-10-28T12:25:28.024Z,54.18
2022-10-28T12:28:00.352Z,54.61
2022-10-28T12:30:30.361Z,54.06
2022-10-28T12:33:02.407Z,54.80
2022-10-28T12:35:32.904Z,54.40
2022-10-28T12:38:12.706Z,54.88
2022-10-28T12:41:17.942Z,54.67
2022-10-28T12:43:52.034Z,55.09
2022-10-28T12:46:52.441Z,55.17
2022-10-28T12:49:23.662Z,54.68
2022-10-28T12:51:50.641Z,55.26
2022-10-28T12:55:03.147Z,55.78
2022-10-28T12:57:34.169Z,55.69
2022-10-28T13:00:18.697Z,55.59
2022-10-28T13:03:12.815Z,55.41
2022-10-28T13:05:39.236Z,55.27
2022-10-28T13:08:33.063Z,55.35
2022-10-28T13:11:08.587Z,55.28
2022-10-28T13:13:53.502Z,55.20
2022-10-28T13:16:25.988Z,55.31
2022-10-28T13:19:20.274Z,55.20
2022-10-28T13:22:05.515Z,55.79
2022-10-28T13:24:53.246Z,55.28
2022-10-28T13:27:20.821Z,55.56
2022-10-28T13:29:52.626Z,55.96
2022-10-28T13:32:38.598Z,56.40
2022-10-28T13:35:14.207Z,56.06
2022-10-28T13:37:42.111Z,55.37
2022-10-28T13:40:33.805Z,54.75
2022-10-28T13:43:02.093Z,54.73
2022-10-28T13:45:48.626Z,54.43
2022-10-28T13:48:30.212Z,55.05
2022-10-28T13:51:11.725Z,55.18
2022-10-28T13:53:41.692Z,55.82
2022-10-28T13:56:32.381Z,56.14
2022-10-28T13:59:03.708Z,54.98
2022-10-28T14:02:33.208Z,56.31
2022-10-28T14:05:00.160Z,56.14
2022-10-28T14:07:29.014Z,56.68
2022-10-28T14:10:00.045Z,56.53
2022-10-28T14:12:32.523Z,56.98
2022-10-28T14:15:08.323Z,56.18
2022-10-28T14:18:09.921Z,56.98
2022-10-28T14:20:46.364Z,56.56
2022-10-28T14:23:36.565Z,56.70
2022-10-28T14:26:05.344Z,56.56
2022-10-28T14:28:31.944Z,56.96
2022-10-28T14:31:07.780Z,56.95
2022-10-28T14:33:54.702Z,57.14
2022-10-28T14:36:21.102Z,57.66
2022-10-28T14:38:53.397Z,57.14
2022-10-28T14:41:47.841Z,57.43
2022-10-28T14:44:26.580Z,57.98
2022-10-28T14:47:30.807Z,57.77
2022-10-28T14:50:05.944Z,58.17
2022-10-28T14:52:36.255Z,57.84
2022-10-28T14:55:06.817Z,57.91
2022-10-28T14:57:34.582Z,57.35
2022-10-28T15:00:08.220Z,57.77
2022-10-28T15:02:37.769Z,57.83
2022-10-28T15:05:25.618Z,58.10
2022-10-28T15:07:52.607Z,57.93
2022-10-28T15:10:25.965Z,57.88
2022-10-28T15:12:58.045Z,57.60
2022-10-28T15:15:27.780Z,57.36
2022-10-28T15:17:55.340Z,57.48
2022-10-28T15:20:29.489Z,57.42
2022-10-28T15:23:18.616Z,56.82
2022-10-28T15:25:45.969Z,57.01
2022-10-28T15:28:13.353Z,57.09
2022-10-28T15:30:46.528Z,57.02
2022-10-28T15:33:31.296Z,57.20
2022-10-28T15:36:18.305Z,56.79
2022-10-28T15:39:06.508Z,56.91
2022-10-28T15:41:42.238Z,56.98
2022-10-28T15:44:25.885Z,57.43
2022-10-28T15:46:52.962Z,57.81
2022-10-28T15:49:37.938Z,57.55
2022-10-28T15:52:16.668Z,57.76
2022-10-28T15:54:53.587Z,57.60
2022-10-28T15:57:31.500Z,57.97
2022-10-28T16:00:20.730Z,57.78
2022-10-28T16:02:58.019Z,57.84
2022-10-28T16:05:39.908Z,58.22
2022-10-28T16:08:17.370Z,58.77
2022-10-28T16:10:47.310Z,58.09
2022-10-28T16:13:23.256Z,58.22
2022-10-28T16:16:09.307Z,57.81
2022-10-28T16:18:48.280Z,57.81
2022-10-28T16:21:20.065Z,57.42
2022-10-28T16:23:47.908Z,57.80
2022-10-28T16:26:17.439Z,57.77
2022-10-28T16:28:45.229Z,58.10
2022-10-28T16:31:16.168Z,58.34
2022-10-28T16:33:43.044Z,58.06
2022-10-28T16:36:09.910Z,58.18
2022-10-28T16:38:37.447Z,58.04
2022-10-28T16:41:05.773Z,57.33
2022-10-28T16:43:32.536Z,56.90
2022-10-28T16:46:00.465Z,57.29
2022-10-28T16:48:30.399Z,56.90
2022-10-28T16:51:03.134Z,57.05
2022-10-28T16:53:29.663Z,56.73
2022-10-28T16:55:59.033Z,56.99
2022-10-28T16:58:27.188Z,56.83
2022-10-28T17:00:54.514Z,57.07
2022-10-28T17:03:21.143Z,56.78
2022-10-28T17:05:48.167Z,56.87
2022-10-28T17:08:14.871Z,56.22
2022-10-28T17:10:42.124Z,56.42
2022-10-28T17:13:13.118Z,56.26
2022-10-28T17:15:40.332Z,56.44
2022-10-28T17:18:07.106Z,56.04
2022-10-28T17:20:33.767Z,56.23
2022-10-28T17:23:00.311Z,56.44
2022-10-28T17:25:27.678Z,56.53
2022-10-28T17:27:54.679Z,56.35
2022-10-28T17:30:21.655Z,56.39
2022-10-28T17:32:53.534Z,56.89
2022-10-28T17:35:21.997Z,56.10
2022-10-28T17:37:51.359Z,56.48
2022-10-28T17:40:17.935Z,56.21
2022-10-28T17:42:44.385Z,56.42
2022-10-28T17:45:11.718Z,56.38
2022-10-28T17:47:38.376Z,56.70
2022-10-28T17:50:05.574Z,56.66
2022-10-28T17:52:35.723Z,56.44
2022-10-28T17:55:05.171Z,56.15
2022-10-28T17:57:31.604Z,56.27
2022-10-28T17:59:58.094Z,56.66
2022-10-28T18:02:24.910Z,57.21
2022-10-28T18:04:51.558Z,56.89
2022-10-28T18:07:18.010Z,56.96
2022-10-28T18:09:44.500Z,56.71
2022-10-28T18:12:12.525Z,57.33
2022-10-28T18:14:39.625Z,57.10
2022-10-28T18:17:06.115Z,57.27
2022-10-28T18:19:32.603Z,57.18
2022-10-28T18:21:59.121Z,57.92
2022-10-28T18:24:26.140Z,58.11
2022-10-28T18:26:54.314Z,58.12
2022-10-28T18:29:20.761Z,58.13
2022-10-28T18:31:47.310Z,58.16
2022-10-28T18:34:13.961Z,58.39
2022-10-28T18:36:40.529Z,58.45
2022-10-28T18:39:07.973Z,58.49
2022-10-28T18:41:38.338Z,59.01
2022-10-28T18:44:10.090Z,59.28
2022-10-28T18:46:37.543Z,59.50
2022-10-28T18:49:07.659Z,59.43
2022-10-28T18:51:34.783Z,59.75
2022-10-28T18:54:01.769Z,60.23
2022-10-28T18:56:31.925Z,60.58
2022-10-28T18:58:59.071Z,60.66
2022-10-28T19:01:27.937Z,60.92
2022-10-28T19:04:00.234Z,61.09
2022-10-28T19:06:35.092Z,61.35
2022-10-28T19:09:03.781Z,61.78
2022-10-28T19:11:31.277Z,61.88
2022-10-28T19:13:59.185Z,61.84
2022-10-28T19:16:26.567Z,62.24
2022-10-28T19:18:57.298Z,62.02
2022-10-28T19:21:24.809Z,62.63
2022-10-28T19:23:51.376Z,62.90
2022-10-28T19:26:18.547Z,62.92
2022-10-28T19:28:47.383Z,62.98
2022-10-28T19:31:16.264Z,63.49
2022-10-28T19:33:43.394Z,63.79
2022-10-28T19:36:25.942Z,64.13
2022-10-28T19:38:53.936Z,64.07
2022-10-28T19:41:23.308Z,64.21
2022-10-28T19:43:57.763Z,64.69
2022-10-28T19:46:28.498Z,64.59
2022-10-28T19:48:57.627Z,65.02
2022-10-28T19:51:27.387Z,65.08
2022-10-28T19:53:56.178Z,65.30
2022-10-28T19:56:23.175Z,65.38
2022-10-28T19:58:54.726Z,65.67
2022-10-28T20:01:22.867Z,65.90
2022-10-28T20:03:51.185Z,66.02
2022-10-28T20:06:19.698Z,65.83
2022-10-28T20:08:47.956Z,66.23
2022-10-28T20:11:29.242Z,66.51
2022-10-28T20:13:57.682Z,66.75
2022-10-28T20:16:28.146Z,67.02
2022-10-28T20:18:55.621Z,67.28
2022-10-28T20:21:26.898Z,67.40
2022-10-28T20:23:55.320Z,67.50
2022-10-28T20:26:24.291Z,67.56
2022-10-28T20:28:51.111Z,67.61
2022-10-28T20:31:23.061Z,67.76
2022-10-28T20:33:54.299Z,68.02
2022-10-28T20:36:31.251Z,68.28
2022-10-28T20:39:03.463Z,68.59
2022-10-28T20:41:32.637Z,68.85
2022-10-28T20:44:01.779Z,68.95
2022-10-28T20:46:29.113Z,69.17
2022-10-28T20:48:56.514Z,69.52
2022-10-28T20:51:28.303Z,69.60
2022-10-28T20:53:54.785Z,69.36
2022-10-28T20:56:23.974Z,69.86
2022-10-28T20:58:51.193Z,70.24
2022-10-28T21:01:21.296Z,70.36
2022-10-28T21:03:49.179Z,70.90
2022-10-28T21:06:17.074Z,71.06
2022-10-28T21:08:44.320Z,71.20
2022-10-28T21:11:16.210Z,71.42
2022-10-28T21:13:48.931Z,71.61
2022-10-28T21:16:18.374Z,71.92
2022-10-28T21:18:44.893Z,71.87
2022-10-28T21:21:12.244Z,72.30
2022-10-28T21:23:39.101Z,72.43
2022-10-28T21:26:09.160Z,72.69
2022-10-28T21:28:36.145Z,72.73
2022-10-28T21:31:14.395Z,72.79
2022-10-28T21:33:43.241Z,73.02
2022-10-28T21:36:15.230Z,73.03
2022-10-28T21:38:42.238Z,73.48
2022-10-28T21:41:16.054Z,73.64
2022-10-28T21:43:44.683Z,73.95
2022-10-28T21:46:11.538Z,73.93
2022-10-28T21:48:38.490Z,74.29
2022-10-28T21:51:11.830Z,74.41
2022-10-28T21:53:41.718Z,74.42
2022-10-28T21:56:17.060Z,74.87
2022-10-28T21:58:45.408Z,75.17
2022-10-28T22:01:23.167Z,75.27
2022-10-28T22:03:55.201Z,75.31
2022-10-28T22:06:22.532Z,75.51
2022-10-28T22:08:49.245Z,75.63
2022-10-28T22:11:24.673Z,76.06
2022-10-28T22:13:59.389Z,76.39
2022-10-28T22:16:27.582Z,76.33
2022-10-28T22:18:54.245Z,76.63
2022-10-28T22:21:23.582Z,76.71
2022-10-28T22:23:50.841Z,76.88
2022-10-28T22:26:19.727Z,77.29
2022-10-28T22:28:47.228Z,77.61
2022-10-28T22:31:16.452Z,77.51
2022-10-28T22:33:43.661Z,77.40
2022-10-28T22:36:15.647Z,77.89
2022-10-28T22:38:42.552Z,78.17
2022-10-28T22:41:21.555Z,78.80
2022-10-28T22:43:59.540Z,78.87
2022-10-28T22:46:28.350Z,78.92
2022-10-28T22:48:55.326Z,78.93
2022-10-28T22:51:25.471Z,79.36
2022-10-28T22:53:52.026Z,79.65
2022-10-28T22:56:21.280Z,79.95
2022-10-28T22:58:55.320Z,80.48
2022-10-28T23:01:22.299Z,80.71
2022-10-28T23:03:51.383Z,81.05
2022-10-28T23:06:20.756Z,80.83
2022-10-28T23:08:47.553Z,80.94
2022-10-28T23:11:16.022Z,81.50
2022-10-28T23:13:42.907Z,81.44
2022-10-28T23:16:14.380Z,81.34
2022-10-28T23:18:41.648Z,81.53
2022-10-28T23:21:13.463Z,81.52
2022-10-28T23:23:40.136Z,81.35
2022-10-28T23:26:07.371Z,81.86
2022-10-28T23:28:33.831Z,82.76
2022-10-28T23:31:04.691Z,82.89
2022-10-28T23:33:35.105Z,82.65
2022-10-28T23:36:03.847Z,82.93
2022-10-28T23:38:31.059Z,82.73
2022-10-28T23:41:02.843Z,83.13
2022-10-28T23:43:29.657Z,82.54
2022-10-28T23:45:56.909Z,82.87
2022-10-28T23:48:24.632Z,82.93
2022-10-28T23:50:51.304Z,83.16
2022-10-28T23:53:21.796Z,83.04
2022-10-28T23:55:49.894Z,83.47
2022-10-28T23:58:19.838Z,83.92
